sensor_id;sensor_type;location;lat;lon;timestamp;P1;durP1;ratioP1;P2;durP2;ratioP2
64242;SDS011;50573;51.512;5.386;2023-05-23T00:02:22;54.83;;;34.63;;
64242;SDS011;50573;51.512;5.386;2023-05-23T00:12:27;51.88;;;34.97;;
64242;SDS011;50573;51.512;5.386;2023-05-23T00:22:30;43.17;;;31.65;;
64242;SDS011;50573;51.512;5.386;2023-05-23T00:32:34;38.13;;;25.20;;
64242;SDS011;50573;51.512;5.386;2023-05-23T00:42:38;36.22;;;21.88;;
64242;SDS011;50573;51.512;5.386;2023-05-23T00:52:43;27.80;;;19.92;;
64242;SDS011;50573;51.512;5.386;2023-05-23T01:02:47;35.05;;;23.38;;
64242;SDS011;50573;51.512;5.386;2023-05-23T01:12:57;32.65;;;22.75;;
64242;SDS011;50573;51.512;5.386;2023-05-23T01:23:27;41.85;;;23.00;;
64242;SDS011;50573;51.512;5.386;2023-05-23T01:33:39;33.17;;;18.88;;
64242;SDS011;50573;51.512;5.386;2023-05-23T01:43:43;36.03;;;19.83;;
64242;SDS011;50573;51.512;5.386;2023-05-23T01:53:47;43.47;;;24.05;;
64242;SDS011;50573;51.512;5.386;2023-05-23T02:03:50;43.13;;;25.27;;
64242;SDS011;50573;51.512;5.386;2023-05-23T02:13:55;39.80;;;24.80;;
64242;SDS011;50573;51.512;5.386;2023-05-23T02:23:58;55.40;;;26.00;;
64242;SDS011;50573;51.512;5.386;2023-05-23T02:34:03;46.17;;;24.95;;
64242;SDS011;50573;51.512;5.386;2023-05-23T02:44:06;40.08;;;22.92;;
64242;SDS011;50573;51.512;5.386;2023-05-23T02:54:11;33.53;;;18.08;;
64242;SDS011;50573;51.512;5.386;2023-05-23T03:04:14;28.08;;;14.93;;
64242;SDS011;50573;51.512;5.386;2023-05-23T03:14:18;21.27;;;11.27;;
64242;SDS011;50573;51.512;5.386;2023-05-23T03:24:22;15.68;;;11.18;;
64242;SDS011;50573;51.512;5.386;2023-05-23T03:34:27;16.45;;;10.57;;
64242;SDS011;50573;51.512;5.386;2023-05-23T03:54:35;18.13;;;10.90;;
64242;SDS011;50573;51.512;5.386;2023-05-23T04:14:43;22.02;;;11.55;;
64242;SDS011;50573;51.512;5.386;2023-05-23T04:24:48;22.98;;;11.98;;
64242;SDS011;50573;51.512;5.386;2023-05-23T04:34:54;23.33;;;13.50;;
64242;SDS011;50573;51.512;5.386;2023-05-23T04:44:58;36.45;;;15.18;;
64242;SDS011;50573;51.512;5.386;2023-05-23T04:55:27;46.10;;;16.35;;
64242;SDS011;50573;51.512;5.386;2023-05-23T05:15:34;46.35;;;17.20;;
64242;SDS011;50573;51.512;5.386;2023-05-23T05:35:43;44.75;;;17.10;;
64242;SDS011;50573;51.512;5.386;2023-05-23T05:45:47;41.72;;;16.75;;
64242;SDS011;50573;51.512;5.386;2023-05-23T05:55:52;45.63;;;14.85;;
64242;SDS011;50573;51.512;5.386;2023-05-23T06:05:56;41.33;;;14.52;;
64242;SDS011;50573;51.512;5.386;2023-05-23T06:16:01;33.58;;;12.55;;
64242;SDS011;50573;51.512;5.386;2023-05-23T06:36:12;21.42;;;9.65;;
64242;SDS011;50573;51.512;5.386;2023-05-23T06:46:15;24.60;;;9.38;;
64242;SDS011;50573;51.512;5.386;2023-05-23T06:56:20;21.52;;;9.10;;
64242;SDS011;50573;51.512;5.386;2023-05-23T07:06:29;25.45;;;8.82;;
64242;SDS011;50573;51.512;5.386;2023-05-23T07:16:35;21.27;;;7.85;;
64242;SDS011;50573;51.512;5.386;2023-05-23T07:26:40;20.38;;;7.03;;
64242;SDS011;50573;51.512;5.386;2023-05-23T07:36:45;24.90;;;7.50;;
64242;SDS011;50573;51.512;5.386;2023-05-23T07:46:51;23.95;;;6.82;;
64242;SDS011;50573;51.512;5.386;2023-05-23T07:56:57;18.67;;;7.47;;
64242;SDS011;50573;51.512;5.386;2023-05-23T08:07:00;21.27;;;7.97;;
64242;SDS011;50573;51.512;5.386;2023-05-23T08:17:34;19.17;;;7.85;;
64242;SDS011;50573;51.512;5.386;2023-05-23T08:27:37;18.63;;;7.93;;
64242;SDS011;50573;51.512;5.386;2023-05-23T08:37:57;18.88;;;7.25;;
64242;SDS011;50573;51.512;5.386;2023-05-23T08:48:02;14.57;;;6.93;;
64242;SDS011;50573;51.512;5.386;2023-05-23T08:58:15;15.35;;;6.32;;
64242;SDS011;50573;51.512;5.386;2023-05-23T09:08:26;15.35;;;6.18;;
64242;SDS011;50573;51.512;5.386;2023-05-23T09:18:34;16.30;;;6.30;;
64242;SDS011;50573;51.512;5.386;2023-05-23T09:28:41;19.25;;;5.03;;
64242;SDS011;50573;51.512;5.386;2023-05-23T09:38:46;18.42;;;4.10;;
64242;SDS011;50573;51.512;5.386;2023-05-23T09:48:50;16.75;;;4.40;;
64242;SDS011;50573;51.512;5.386;2023-05-23T09:58:55;15.82;;;3.30;;
64242;SDS011;50573;51.512;5.386;2023-05-23T10:09:02;16.00;;;4.65;;
64242;SDS011;50573;51.512;5.386;2023-05-23T10:19:09;20.77;;;4.30;;
64242;SDS011;50573;51.512;5.386;2023-05-23T10:29:24;21.70;;;3.60;;
64242;SDS011;50573;51.512;5.386;2023-05-23T10:39:32;19.23;;;4.03;;
64242;SDS011;50573;51.512;5.386;2023-05-23T10:49:45;15.82;;;4.10;;
64242;SDS011;50573;51.512;5.386;2023-05-23T10:59:50;15.95;;;4.25;;
64242;SDS011;50573;51.512;5.386;2023-05-23T11:10:03;16.35;;;4.50;;
64242;SDS011;50573;51.512;5.386;2023-05-23T11:20:12;17.80;;;4.13;;
64242;SDS011;50573;51.512;5.386;2023-05-23T11:30:17;18.17;;;4.75;;
64242;SDS011;50573;51.512;5.386;2023-05-23T11:40:26;18.10;;;3.57;;
64242;SDS011;50573;51.512;5.386;2023-05-23T11:50:31;15.77;;;4.15;;
64242;SDS011;50573;51.512;5.386;2023-05-23T12:00:35;14.95;;;3.72;;
64242;SDS011;50573;51.512;5.386;2023-05-23T12:10:48;11.75;;;3.65;;
64242;SDS011;50573;51.512;5.386;2023-05-23T12:20:54;19.85;;;4.55;;
64242;SDS011;50573;51.512;5.386;2023-05-23T12:31:07;16.10;;;3.95;;
64242;SDS011;50573;51.512;5.386;2023-05-23T12:41:15;18.48;;;4.57;;
64242;SDS011;50573;51.512;5.386;2023-05-23T12:51:20;15.30;;;3.78;;
64242;SDS011;50573;51.512;5.386;2023-05-23T13:01:25;15.25;;;3.65;;
64242;SDS011;50573;51.512;5.386;2023-05-23T13:11:28;14.30;;;3.83;;
64242;SDS011;50573;51.512;5.386;2023-05-23T13:21:34;11.30;;;3.50;;
64242;SDS011;50573;51.512;5.386;2023-05-23T13:31:37;13.75;;;3.30;;
64242;SDS011;50573;51.512;5.386;2023-05-23T13:41:41;18.10;;;3.60;;
64242;SDS011;50573;51.512;5.386;2023-05-23T13:51:44;14.77;;;3.85;;
64242;SDS011;50573;51.512;5.386;2023-05-23T14:01:49;14.73;;;4.15;;
64242;SDS011;50573;51.512;5.386;2023-05-23T14:11:52;14.93;;;4.03;;
64242;SDS011;50573;51.512;5.386;2023-05-23T14:21:56;12.02;;;3.40;;
64242;SDS011;50573;51.512;5.386;2023-05-23T14:31:59;12.70;;;3.67;;
64242;SDS011;50573;51.512;5.386;2023-05-23T14:42:05;13.27;;;3.40;;
64242;SDS011;50573;51.512;5.386;2023-05-23T14:52:09;13.68;;;3.63;;
64242;SDS011;50573;51.512;5.386;2023-05-23T15:02:14;13.77;;;3.65;;
64242;SDS011;50573;51.512;5.386;2023-05-23T15:12:18;15.25;;;3.78;;
64242;SDS011;50573;51.512;5.386;2023-05-23T15:22:22;16.70;;;3.53;;
64242;SDS011;50573;51.512;5.386;2023-05-23T15:32:30;13.15;;;3.28;;
64242;SDS011;50573;51.512;5.386;2023-05-23T15:42:35;15.47;;;3.10;;
64242;SDS011;50573;51.512;5.386;2023-05-23T15:52:38;16.50;;;3.97;;
64242;SDS011;50573;51.512;5.386;2023-05-23T16:02:42;12.90;;;3.33;;
64242;SDS011;50573;51.512;5.386;2023-05-23T16:12:46;12.75;;;3.13;;
64242;SDS011;50573;51.512;5.386;2023-05-23T16:22:50;15.82;;;4.00;;
64242;SDS011;50573;51.512;5.386;2023-05-23T16:32:53;14.60;;;3.55;;
64242;SDS011;50573;51.512;5.386;2023-05-23T16:42:58;13.93;;;3.65;;
64242;SDS011;50573;51.512;5.386;2023-05-23T17:03:05;14.48;;;3.20;;
64242;SDS011;50573;51.512;5.386;2023-05-23T17:23:12;12.18;;;3.38;;
64242;SDS011;50573;51.512;5.386;2023-05-23T17:33:16;13.77;;;3.60;;
64242;SDS011;50573;51.512;5.386;2023-05-23T17:43:21;12.00;;;3.35;;
64242;SDS011;50573;51.512;5.386;2023-05-23T17:53:25;18.05;;;3.53;;
64242;SDS011;50573;51.512;5.386;2023-05-23T18:03:30;16.25;;;2.78;;
64242;SDS011;50573;51.512;5.386;2023-05-23T18:13:34;17.30;;;3.65;;
64242;SDS011;50573;51.512;5.386;2023-05-23T18:23:38;14.80;;;3.25;;
64242;SDS011;50573;51.512;5.386;2023-05-23T18:33:42;9.20;;;2.60;;
64242;SDS011;50573;51.512;5.386;2023-05-23T18:43:47;18.33;;;3.83;;
64242;SDS011;50573;51.512;5.386;2023-05-23T18:53:50;12.32;;;4.05;;
64242;SDS011;50573;51.512;5.386;2023-05-23T19:03:55;17.92;;;3.72;;
64242;SDS011;50573;51.512;5.386;2023-05-23T19:13:58;9.98;;;3.10;;
64242;SDS011;50573;51.512;5.386;2023-05-23T19:24:03;11.82;;;2.17;;
64242;SDS011;50573;51.512;5.386;2023-05-23T19:34:07;16.10;;;3.05;;
64242;SDS011;50573;51.512;5.386;2023-05-23T19:44:12;24.50;;;3.40;;
64242;SDS011;50573;51.512;5.386;2023-05-23T19:54:15;26.30;;;3.57;;
64242;SDS011;50573;51.512;5.386;2023-05-23T20:04:20;19.10;;;4.05;;
64242;SDS011;50573;51.512;5.386;2023-05-23T20:14:25;18.48;;;3.78;;
64242;SDS011;50573;51.512;5.386;2023-05-23T20:24:31;21.93;;;4.60;;
64242;SDS011;50573;51.512;5.386;2023-05-23T20:34:34;24.03;;;4.63;;
64242;SDS011;50573;51.512;5.386;2023-05-23T20:44:38;14.27;;;3.65;;
64242;SDS011;50573;51.512;5.386;2023-05-23T20:54:41;18.37;;;3.63;;
64242;SDS011;50573;51.512;5.386;2023-05-23T21:04:46;18.77;;;4.35;;
64242;SDS011;50573;51.512;5.386;2023-05-23T21:14:49;19.20;;;4.90;;
64242;SDS011;50573;51.512;5.386;2023-05-23T21:24:53;19.65;;;3.35;;
64242;SDS011;50573;51.512;5.386;2023-05-23T21:34:57;20.00;;;3.88;;
64242;SDS011;50573;51.512;5.386;2023-05-23T21:45:01;15.27;;;3.83;;
64242;SDS011;50573;51.512;5.386;2023-05-23T21:55:04;21.50;;;4.27;;
64242;SDS011;50573;51.512;5.386;2023-05-23T22:05:09;19.95;;;4.10;;
64242;SDS011;50573;51.512;5.386;2023-05-23T22:15:13;29.90;;;5.13;;
64242;SDS011;50573;51.512;5.386;2023-05-23T22:25:18;22.27;;;5.03;;
64242;SDS011;50573;51.512;5.386;2023-05-23T22:35:22;16.02;;;3.53;;
64242;SDS011;50573;51.512;5.386;2023-05-23T22:45:26;17.60;;;3.97;;
64242;SDS011;50573;51.512;5.386;2023-05-23T22:55:30;17.95;;;4.57;;
64242;SDS011;50573;51.512;5.386;2023-05-23T23:05:35;18.10;;;4.82;;
64242;SDS011;50573;51.512;5.386;2023-05-23T23:15:37;20.57;;;4.83;;
64242;SDS011;50573;51.512;5.386;2023-05-23T23:25:44;24.20;;;4.65;;
64242;SDS011;50573;51.512;5.386;2023-05-23T23:35:50;25.23;;;4.78;;
64242;SDS011;50573;51.512;5.386;2023-05-23T23:45:54;23.40;;;4.85;;
64242;SDS011;50573;51.512;5.386;2023-05-23T23:55:57;16.67;;;4.90;;
